createdAt,value
2022-11-22T00:00:20.145Z,-3.51
2022-11-22T00:02:46.670Z,-3.51
2022-11-22T00:05:13.524Z,-3.45
2022-11-22T00:07:40.288Z,-3.41
2022-11-22T00:10:08.193Z,-3.36
2022-11-22T00:12:34.717Z,-3.42
2022-11-22T00:15:01.579Z,-3.40
2022-11-22T00:17:28.248Z,-3.49
2022-11-22T00:19:54.752Z,-3.47
2022-11-22T00:22:21.203Z,-3.51
2022-11-22T00:24:47.797Z,-3.79
2022-11-22T00:27:14.220Z,-3.77
2022-11-22T00:29:40.610Z,-3.69
2022-11-22T00:32:07.037Z,-3.75
2022-11-22T00:34:33.469Z,-3.64
2022-11-22T00:37:00.006Z,-3.54
2022-11-22T00:39:26.438Z,-3.62
2022-11-22T00:41:52.860Z,-3.75
2022-11-22T00:44:19.283Z,-3.64
2022-11-22T00:46:45.668Z,-3.46
2022-11-22T00:49:12.091Z,-3.33
2022-11-22T00:51:38.562Z,-3.51
2022-11-22T00:54:05.115Z,-3.51
2022-11-22T00:56:32.113Z,-3.39
2022-11-22T00:58:58.855Z,-3.58
2022-11-22T01:01:25.412Z,-3.55
2022-11-22T01:03:51.911Z,-3.88
2022-11-22T01:06:18.362Z,-3.84
2022-11-22T01:08:45.121Z,-3.69
2022-11-22T01:11:13.021Z,-3.75
2022-11-22T01:13:39.501Z,-4.07
2022-11-22T01:16:08.625Z,-3.93
2022-11-22T01:18:35.077Z,-3.82
2022-11-22T01:21:02.370Z,-3.91
2022-11-22T01:23:29.009Z,-3.81
2022-11-22T01:25:56.957Z,-4.03
2022-11-22T01:28:23.924Z,-4.04
2022-11-22T01:30:51.675Z,-3.92
2022-11-22T01:33:18.943Z,-3.85
2022-11-22T01:35:45.451Z,-3.78
2022-11-22T01:38:12.008Z,-3.78
2022-11-22T01:40:38.441Z,-3.65
2022-11-22T01:43:16.141Z,-3.65
2022-11-22T01:45:45.260Z,-3.93
2022-11-22T01:48:11.605Z,-3.91
2022-11-22T01:50:43.106Z,-3.64
2022-11-22T01:53:13.479Z,-3.74
2022-11-22T01:55:41.139Z,-3.56
2022-11-22T01:58:10.009Z,-3.86
2022-11-22T02:00:38.749Z,-3.79
2022-11-22T02:03:09.453Z,-3.60
2022-11-22T02:09:23.401Z,-3.65
2022-11-22T02:11:53.814Z,-3.63
2022-11-22T02:14:24.871Z,-3.88
2022-11-22T02:16:51.458Z,-3.78
2022-11-22T02:19:28.217Z,-3.74
2022-11-22T02:22:01.392Z,-4.03
2022-11-22T02:24:46.685Z,-3.75
2022-11-22T02:27:13.158Z,-3.85
2022-11-22T02:29:40.014Z,-3.83
2022-11-22T02:32:06.483Z,-3.87
2022-11-22T02:34:47.218Z,-3.96
2022-11-22T02:37:20.465Z,-4.10
2022-11-22T02:39:48.564Z,-4.05
2022-11-22T02:42:15.098Z,-3.99
2022-11-22T02:44:42.237Z,-3.85
2022-11-22T02:47:08.822Z,-3.81
2022-11-22T02:49:35.326Z,-3.93
2022-11-22T02:52:02.166Z,-4.05
2022-11-22T02:54:28.605Z,-4.04
2022-11-22T02:56:55.011Z,-3.81
2022-11-22T02:59:21.508Z,-3.77
2022-11-22T03:01:48.897Z,-3.92
2022-11-22T03:04:25.041Z,-4.00
2022-11-22T03:06:56.626Z,-3.93
2022-11-22T03:09:24.430Z,-4.11
2022-11-22T03:11:51.861Z,-3.81
2022-11-22T03:14:18.445Z,-3.94
2022-11-22T03:16:46.266Z,-3.77
2022-11-22T03:19:13.464Z,-3.87
2022-11-22T03:21:42.118Z,-4.19
2022-11-22T03:24:10.071Z,-4.13
2022-11-22T03:26:37.076Z,-4.00
2022-11-22T03:29:03.772Z,-4.00
2022-11-22T03:31:30.420Z,-3.72
2022-11-22T03:33:57.021Z,-4.01
2022-11-22T03:36:23.487Z,-3.85
2022-11-22T03:38:50.607Z,-3.91
2022-11-22T03:41:17.092Z,-4.02
2022-11-22T03:43:43.529Z,-3.99
2022-11-22T03:46:19.459Z,-3.84
2022-11-22T03:48:46.676Z,-3.98
2022-11-22T03:51:13.429Z,-4.02
2022-11-22T03:53:39.968Z,-3.79
2022-11-22T03:56:07.026Z,-3.75
2022-11-22T03:58:33.692Z,-3.82
2022-11-22T04:01:00.670Z,-3.94
2022-11-22T04:03:27.646Z,-3.76
2022-11-22T04:05:54.343Z,-3.59
2022-11-22T04:08:20.899Z,-3.78
2022-11-22T04:10:52.010Z,-3.72
2022-11-22T04:13:18.826Z,-3.68
2022-11-22T04:15:45.351Z,-4.08
2022-11-22T04:18:13.335Z,-4.02
2022-11-22T04:20:59.120Z,-4.05
2022-11-22T04:23:32.206Z,-3.81
2022-11-22T04:26:00.172Z,-3.86
2022-11-22T04:28:40.918Z,-3.80
2022-11-22T04:31:32.313Z,-3.59
2022-11-22T04:33:58.704Z,-3.73
2022-11-22T04:36:25.118Z,-3.54
2022-11-22T04:38:52.173Z,-3.54
2022-11-22T04:41:18.692Z,-3.58
2022-11-22T04:44:03.982Z,-3.76
2022-11-22T04:46:31.494Z,-3.67
2022-11-22T04:48:58.017Z,-3.80
2022-11-22T04:51:42.846Z,-3.67
2022-11-22T04:54:09.405Z,-3.56
2022-11-22T04:56:35.912Z,-3.59
2022-11-22T04:59:02.361Z,-3.64
2022-11-22T05:01:28.881Z,-3.76
2022-11-22T05:03:55.471Z,-3.54
2022-11-22T05:06:21.942Z,-3.26
2022-11-22T05:08:48.350Z,-3.12
2022-11-22T05:11:14.954Z,-3.37
2022-11-22T05:13:42.507Z,-3.53
2022-11-22T05:16:11.793Z,-3.75
2022-11-22T05:18:38.980Z,-3.94
2022-11-22T05:21:14.848Z,-3.67
2022-11-22T05:23:56.507Z,-3.81
2022-11-22T05:26:31.617Z,-3.75
2022-11-22T05:28:59.042Z,-3.88
2022-11-22T05:31:27.488Z,-3.75
2022-11-22T05:33:56.026Z,-3.59
2022-11-22T05:36:23.452Z,-3.62
2022-11-22T05:38:50.259Z,-3.76
2022-11-22T05:41:17.371Z,-3.72
2022-11-22T05:43:44.166Z,-3.83
2022-11-22T05:46:19.620Z,-3.96
2022-11-22T05:48:50.231Z,-3.66
2022-11-22T05:51:19.747Z,-3.57
2022-11-22T05:53:47.017Z,-3.48
2022-11-22T05:56:22.864Z,-3.28
2022-11-22T05:58:50.668Z,-3.29
2022-11-22T06:01:19.591Z,-3.11
2022-11-22T06:03:46.533Z,-3.13
2022-11-22T06:06:13.598Z,-3.24
2022-11-22T06:08:41.533Z,-3.35
2022-11-22T06:11:12.900Z,-3.34
2022-11-22T06:13:40.144Z,-3.30
2022-11-22T06:16:08.705Z,-3.40
2022-11-22T06:18:35.562Z,-3.57
2022-11-22T06:21:05.982Z,-3.60
2022-11-22T06:23:33.400Z,-3.46
2022-11-22T06:26:01.952Z,-3.50
2022-11-22T06:28:33.950Z,-3.41
2022-11-22T06:31:12.692Z,-3.50
2022-11-22T06:33:40.008Z,-3.27
2022-11-22T06:36:11.992Z,-3.23
2022-11-22T06:38:40.104Z,-3.45
2022-11-22T06:41:09.392Z,-3.23
2022-11-22T06:43:37.434Z,-3.41
2022-11-22T06:46:05.626Z,-3.36
2022-11-22T06:48:35.073Z,-3.42
2022-11-22T06:51:03.157Z,-3.32
2022-11-22T06:53:46.691Z,-3.22
2022-11-22T06:56:24.986Z,-3.21
2022-11-22T06:58:52.936Z,-3.32
2022-11-22T07:01:27.533Z,-3.18
2022-11-22T07:03:58.358Z,-3.10
2022-11-22T07:06:37.282Z,-2.83
2022-11-22T07:09:06.927Z,-2.89
2022-11-22T07:11:35.210Z,-3.05
2022-11-22T07:14:07.721Z,-2.93
2022-11-22T07:16:36.195Z,-2.97
2022-11-22T07:19:02.678Z,-2.84
2022-11-22T07:21:29.105Z,-2.85
2022-11-22T07:23:56.194Z,-2.89
2022-11-22T07:26:25.851Z,-2.92
2022-11-22T07:28:52.362Z,-2.87
2022-11-22T07:31:19.099Z,-3.05
2022-11-22T07:33:45.967Z,-2.91
2022-11-22T07:36:12.343Z,-2.99
2022-11-22T07:38:39.235Z,-2.95
2022-11-22T07:41:06.777Z,-2.98
2022-11-22T07:43:33.592Z,-3.04
2022-11-22T07:46:01.428Z,-2.93
2022-11-22T07:48:27.877Z,-3.07
2022-11-22T07:50:54.450Z,-3.12
2022-11-22T07:53:21.277Z,-2.90
2022-11-22T07:55:47.912Z,-2.94
2022-11-22T07:58:14.381Z,-2.74
2022-11-22T08:00:40.955Z,-2.89
2022-11-22T08:03:08.314Z,-2.68
2022-11-22T08:05:34.742Z,-2.93
2022-11-22T08:08:01.355Z,-2.65
2022-11-22T08:10:27.845Z,-3.05
2022-11-22T08:12:54.268Z,-2.72
2022-11-22T08:15:20.841Z,-2.84
2022-11-22T08:17:47.555Z,-2.68
2022-11-22T08:20:14.360Z,-2.87
2022-11-22T08:22:41.106Z,-2.72
2022-11-22T08:25:12.606Z,-2.83
2022-11-22T08:27:43.025Z,-2.59
2022-11-22T08:30:11.220Z,-2.60
2022-11-22T08:32:38.436Z,-2.69
2022-11-22T08:35:05.638Z,-2.81
2022-11-22T08:37:32.249Z,-2.78
2022-11-22T08:39:58.741Z,-2.79
2022-11-22T08:42:25.194Z,-2.76
2022-11-22T08:44:51.670Z,-2.78
2022-11-22T08:47:18.305Z,-2.85
2022-11-22T08:49:44.909Z,-2.59
2022-11-22T08:52:11.352Z,-2.38
2022-11-22T08:54:38.352Z,-2.74
2022-11-22T08:57:05.253Z,-2.55
2022-11-22T08:59:32.189Z,-2.66
2022-11-22T09:01:59.300Z,-2.66
2022-11-22T09:04:25.906Z,-2.54
2022-11-22T09:09:38.799Z,-2.39
2022-11-22T09:12:05.745Z,-2.25
2022-11-22T09:14:32.183Z,-2.20
2022-11-22T09:16:58.645Z,-2.19
2022-11-22T09:19:25.189Z,-2.34
2022-11-22T09:21:51.659Z,-2.34
2022-11-22T09:24:18.085Z,-2.13
2022-11-22T09:26:44.491Z,-1.91
2022-11-22T09:29:11.060Z,-1.82
2022-11-22T09:31:37.673Z,-2.10
2022-11-22T09:34:04.121Z,-2.01
2022-11-22T09:36:30.985Z,-1.92
2022-11-22T09:38:57.491Z,-1.85
2022-11-22T09:41:51.273Z,-2.04
2022-11-22T09:44:26.763Z,-2.16
2022-11-22T09:46:59.217Z,-1.83
2022-11-22T09:49:47.186Z,-1.86
2022-11-22T09:52:32.311Z,-1.76
2022-11-22T09:55:26.618Z,-1.59
2022-11-22T09:58:05.956Z,-1.53
2022-11-22T10:00:33.119Z,-1.35
2022-11-22T10:03:14.483Z,-1.62
2022-11-22T10:05:56.350Z,-1.82
2022-11-22T10:08:37.499Z,-1.74
2022-11-22T10:11:36.085Z,-1.66
2022-11-22T10:14:12.240Z,-1.43
2022-11-22T10:16:44.345Z,-1.76
2022-11-22T10:19:14.780Z,-1.70
2022-11-22T10:21:42.419Z,-1.52
2022-11-22T10:24:16.739Z,-1.48
2022-11-22T10:26:43.272Z,-1.44
2022-11-22T10:29:27.296Z,-1.29
2022-11-22T10:32:08.430Z,-1.02
2022-11-22T10:34:40.597Z,-1.31
2022-11-22T10:37:20.373Z,-1.16
2022-11-22T10:39:52.608Z,-1.12
2022-11-22T10:42:42.214Z,-1.25
2022-11-22T10:45:29.662Z,-1.20
2022-11-22T10:48:34.578Z,-0.94
2022-11-22T10:51:16.022Z,-1.05
2022-11-22T10:54:03.847Z,-1.13
2022-11-22T10:56:39.184Z,-1.09
2022-11-22T10:59:36.084Z,-1.20
2022-11-22T11:02:10.212Z,-1.45
2022-11-22T11:04:39.901Z,-1.22
2022-11-22T11:07:12.817Z,-1.14
2022-11-22T11:12:47.188Z,-1.09
2022-11-22T11:15:32.638Z,-0.93
2022-11-22T11:18:02.863Z,-0.82
2022-11-22T11:20:37.117Z,-0.79
2022-11-22T11:23:18.945Z,-0.96
2022-11-22T11:25:47.181Z,-0.98
2022-11-22T11:28:19.049Z,-0.77
2022-11-22T11:30:55.726Z,-0.64
2022-11-22T11:33:41.677Z,-0.65
2022-11-22T11:36:16.093Z,-0.75
2022-11-22T11:38:42.480Z,-0.47
2022-11-22T11:41:20.317Z,-0.62
2022-11-22T11:43:47.691Z,-0.57
2022-11-22T11:46:22.816Z,-0.67
2022-11-22T11:48:54.813Z,-0.57
2022-11-22T11:51:41.448Z,-0.70
2022-11-22T11:54:21.658Z,-0.71
2022-11-22T11:56:57.889Z,-0.74
2022-11-22T11:59:41.870Z,-0.58
2022-11-22T12:02:21.707Z,-0.33
2022-11-22T12:04:59.368Z,-0.39
2022-11-22T12:07:35.872Z,-0.58
2022-11-22T12:10:24.207Z,-0.72
2022-11-22T12:13:00.201Z,-0.59
2022-11-22T12:15:44.106Z,-0.36
2022-11-22T12:18:30.774Z,-0.40
2022-11-22T12:21:13.723Z,-0.27
2022-11-22T12:23:51.030Z,-0.43
2022-11-22T12:26:18.444Z,-0.51
2022-11-22T12:28:45.139Z,-0.18
2022-11-22T12:31:20.705Z,-0.25
2022-11-22T12:34:02.366Z,-0.40
2022-11-22T12:36:47.548Z,-0.36
2022-11-22T12:39:35.329Z,-0.50
2022-11-22T12:42:23.905Z,-0.38
2022-11-22T12:45:20.260Z,-0.26
2022-11-22T12:47:48.281Z,-0.19
2022-11-22T12:50:30.111Z,0.02
2022-11-22T12:53:05.161Z,-0.10
2022-11-22T12:55:44.805Z,-0.41
2022-11-22T12:58:20.902Z,-0.33
2022-11-22T13:01:17.122Z,-0.21
2022-11-22T13:04:25.855Z,-0.29
2022-11-22T13:07:01.915Z,-0.21
2022-11-22T13:09:35.031Z,-0.27
2022-11-22T13:12:15.088Z,-0.23
2022-11-22T13:14:55.265Z,-0.27
2022-11-22T13:17:24.488Z,-0.13
2022-11-22T13:20:05.853Z,-0.24
2022-11-22T13:22:59.766Z,-0.20
2022-11-22T13:25:38.075Z,-0.09
2022-11-22T13:28:23.857Z,-0.16
2022-11-22T13:31:12.115Z,0.07
2022-11-22T13:34:02.370Z,0.20
2022-11-22T13:36:31.809Z,-0.19
2022-11-22T13:39:05.535Z,-0.27
2022-11-22T13:41:34.814Z,-0.19
2022-11-22T13:44:23.226Z,0.01
2022-11-22T13:46:49.570Z,-0.11
2022-11-22T13:49:38.254Z,0.01
2022-11-22T13:52:16.795Z,-0.13
2022-11-22T13:54:58.239Z,-0.04
2022-11-22T13:57:44.996Z,-0.20
2022-11-22T14:00:11.371Z,-0.20
2022-11-22T14:02:48.021Z,-0.11
2022-11-22T14:05:41.255Z,0.08
2022-11-22T14:08:36.268Z,0.08
2022-11-22T14:11:24.223Z,0.05
2022-11-22T14:14:04.404Z,0.18
2022-11-22T14:16:44.076Z,0.13
2022-11-22T14:19:25.500Z,0.26
2022-11-22T14:22:03.538Z,-0.01
2022-11-22T14:24:36.532Z,0.02
2022-11-22T14:27:26.881Z,-0.04
2022-11-22T14:30:36.810Z,-0.03
2022-11-22T14:33:15.426Z,0.04
2022-11-22T14:36:06.740Z,-0.09
2022-11-22T14:38:35.558Z,0.00
2022-11-22T14:41:40.575Z,0.19
2022-11-22T14:44:09.893Z,0.27
2022-11-22T14:46:53.892Z,0.05
2022-11-22T14:49:23.867Z,-0.07
2022-11-22T14:51:55.992Z,0.02
2022-11-22T14:54:28.361Z,-0.07
2022-11-22T14:57:02.824Z,0.17
2022-11-22T15:00:02.675Z,0.04
2022-11-22T15:02:44.393Z,0.36
2022-11-22T15:09:13.159Z,0.18
2022-11-22T15:09:17.686Z,0.17
2022-11-22T15:11:20.917Z,0.04
2022-11-22T15:14:24.523Z,-0.07
2022-11-22T15:59:43.150Z,-0.07
2022-11-22T16:02:16.090Z,-0.05
2022-11-22T16:06:05.473Z,-0.15
2022-11-22T16:07:49.026Z,-0.11
2022-11-22T16:10:37.115Z,-0.22
2022-11-22T16:13:24.237Z,-0.12
2022-11-22T16:16:10.690Z,0.04
2022-11-22T16:18:38.730Z,-0.12
2022-11-22T16:21:19.852Z,-0.17
2022-11-22T16:23:47.090Z,-0.20
2022-11-22T16:26:29.285Z,-0.26
2022-11-22T16:29:10.346Z,-0.12
2022-11-22T16:31:39.030Z,-0.11
2022-11-22T16:34:12.761Z,-0.07
2022-11-22T16:36:39.431Z,-0.25
2022-11-22T16:39:05.940Z,-0.07
2022-11-22T16:41:34.387Z,-0.03
2022-11-22T16:44:04.068Z,-0.10
2022-11-22T16:46:30.461Z,0.02
2022-11-22T16:48:57.050Z,0.12
2022-11-22T16:51:28.041Z,0.10
2022-11-22T16:53:58.594Z,-0.11
2022-11-22T16:56:29.250Z,0.01
2022-11-22T16:58:57.527Z,0.11
2022-11-22T17:01:26.552Z,0.04
2022-11-22T17:03:55.628Z,0.23
2022-11-22T17:06:24.809Z,0.18
2022-11-22T17:08:54.239Z,-0.12
2022-11-22T17:11:23.395Z,0.08
2022-11-22T17:13:50.049Z,0.08
2022-11-22T17:16:17.876Z,0.09
2022-11-22T17:18:45.847Z,0.13
2022-11-22T17:21:32.910Z,0.16
2022-11-22T17:24:20.966Z,0.18
2022-11-22T17:26:47.401Z,0.06
2022-11-22T17:29:42.897Z,0.32
2022-11-22T17:32:00.685Z,0.14
2022-11-22T17:34:27.258Z,0.07
2022-11-22T17:36:53.708Z,0.20
2022-11-22T17:39:20.190Z,0.13
2022-11-22T17:41:48.802Z,0.11
2022-11-22T17:44:17.815Z,-0.57
2022-11-22T17:46:44.380Z,-0.14
2022-11-22T17:49:16.165Z,0.17
2022-11-22T17:51:43.315Z,0.15
2022-11-22T17:54:09.988Z,0.00
2022-11-22T17:56:37.486Z,-0.04
2022-11-22T17:59:05.043Z,-0.13
2022-11-22T18:01:31.619Z,0.03
2022-11-22T18:03:58.090Z,-0.03
2022-11-22T18:06:26.232Z,0.24
2022-11-22T18:08:52.750Z,0.27
2022-11-22T18:11:19.198Z,0.04
2022-11-22T18:13:45.708Z,-0.03
2022-11-22T18:16:14.720Z,-0.20
2022-11-22T18:18:58.018Z,0.24
2022-11-22T18:21:26.075Z,-0.28
2022-11-22T18:23:52.512Z,0.10
2022-11-22T18:31:53.228Z,-0.12
2022-11-22T18:34:20.642Z,-0.03
2022-11-22T18:37:04.083Z,0.13
2022-11-22T18:39:37.092Z,0.00
2022-11-22T18:42:06.088Z,0.18
2022-11-22T18:44:32.762Z,-0.01
2022-11-22T18:46:59.276Z,0.07
2022-11-22T18:49:25.765Z,0.02
2022-11-22T18:51:52.200Z,-0.01
2022-11-22T18:54:19.748Z,-0.11
2022-11-22T18:56:46.172Z,0.09
2022-11-22T18:59:12.916Z,-0.07
2022-11-22T19:01:40.544Z,-0.17
2022-11-22T19:04:07.533Z,-0.06
2022-11-22T19:06:34.031Z,0.05
2022-11-22T19:09:01.046Z,0.04
2022-11-22T19:11:29.506Z,-0.04
2022-11-22T19:13:55.973Z,0.11
2022-11-22T19:16:22.867Z,0.13
2022-11-22T19:18:50.087Z,-0.14
2022-11-22T19:21:18.956Z,0.02
2022-11-22T19:23:46.838Z,-0.28
2022-11-22T19:26:19.342Z,-0.14
2022-11-22T19:28:48.020Z,-0.26
2022-11-22T19:31:17.493Z,-0.26
2022-11-22T19:33:44.386Z,-0.20
2022-11-22T19:36:13.945Z,-0.11
2022-11-22T19:38:41.108Z,0.03
2022-11-22T19:41:12.780Z,0.10
2022-11-22T19:43:39.591Z,-0.14
2022-11-22T19:46:06.718Z,-0.06
2022-11-22T19:48:35.288Z,0.01
2022-11-22T19:51:08.868Z,0.21
2022-11-22T19:53:35.671Z,0.12
2022-11-22T19:56:07.112Z,-0.05
2022-11-22T19:58:33.815Z,0.01
2022-11-22T20:01:08.103Z,0.07
2022-11-22T20:03:35.828Z,-0.05
2022-11-22T20:06:03.922Z,0.28
2022-11-22T20:08:30.997Z,0.00
2022-11-22T20:11:08.907Z,0.11
2022-11-22T20:13:41.560Z,0.23
2022-11-22T20:16:10.952Z,0.05
2022-11-22T20:18:37.785Z,0.16
2022-11-22T20:21:05.637Z,0.20
2022-11-22T20:23:32.382Z,0.32
2022-11-22T20:26:03.657Z,0.21
2022-11-22T20:28:30.192Z,0.18
2022-11-22T20:31:13.591Z,0.19
2022-11-22T20:33:42.858Z,0.01
2022-11-22T20:36:14.887Z,-0.12
2022-11-22T20:38:43.122Z,0.14
2022-11-22T20:41:11.392Z,0.15
2022-11-22T20:43:38.136Z,0.25
2022-11-22T20:46:13.847Z,0.29
2022-11-22T20:48:42.311Z,0.04
2022-11-22T20:51:11.820Z,0.31
2022-11-22T20:53:38.671Z,0.28
2022-11-22T20:56:05.624Z,0.19
2022-11-22T20:58:32.606Z,0.19
2022-11-22T21:00:59.405Z,0.22
2022-11-22T21:03:28.094Z,0.07
2022-11-22T21:05:55.384Z,0.16
2022-11-22T21:08:22.988Z,0.11
2022-11-22T21:10:49.579Z,0.22
2022-11-22T21:13:16.414Z,0.17
2022-11-22T21:15:43.323Z,0.07
2022-11-22T21:18:25.365Z,0.05
2022-11-22T21:20:52.541Z,0.10
2022-11-22T21:23:19.068Z,0.05
2022-11-22T21:25:46.135Z,0.00
2022-11-22T21:28:12.573Z,-0.02
2022-11-22T21:30:39.037Z,0.19
2022-11-22T21:33:05.644Z,0.09
2022-11-22T21:35:32.047Z,-0.33
2022-11-22T21:37:58.547Z,-0.11
2022-11-22T21:40:25.182Z,-0.11
2022-11-22T21:42:51.579Z,-0.16
2022-11-22T21:45:18.024Z,-0.34
2022-11-22T21:47:47.297Z,-0.29
2022-11-22T21:50:15.257Z,-0.17
2022-11-22T21:52:42.322Z,-0.43
2022-11-22T21:55:09.686Z,-0.23
2022-11-22T21:57:36.133Z,-0.07
2022-11-22T22:00:06.051Z,-0.29
2022-11-22T22:02:32.955Z,-0.58
2022-11-22T22:04:59.534Z,-0.11
2022-11-22T22:07:45.107Z,-0.27
2022-11-22T22:10:13.279Z,-0.03
2022-11-22T22:12:40.848Z,-0.19
2022-11-22T22:15:11.951Z,-0.02
2022-11-22T22:17:38.553Z,-0.24
2022-11-22T22:20:05.644Z,-0.07
2022-11-22T22:22:35.486Z,-0.24
2022-11-22T22:25:01.881Z,-0.16
2022-11-22T22:27:31.038Z,-0.16
2022-11-22T22:29:58.368Z,-0.35
2022-11-22T22:32:25.587Z,-0.12
2022-11-22T22:34:52.427Z,-0.07
2022-11-22T22:37:19.062Z,-0.37
2022-11-22T22:39:45.749Z,-0.42
2022-11-22T22:42:12.244Z,-0.19
2022-11-22T22:44:38.625Z,-0.52
2022-11-22T22:47:05.014Z,-0.37
2022-11-22T22:49:31.727Z,-0.26
2022-11-22T22:51:58.244Z,-0.22
2022-11-22T22:54:24.640Z,-0.29
2022-11-22T22:56:51.200Z,-0.40
2022-11-22T22:59:17.644Z,-0.39
2022-11-22T23:01:44.177Z,-0.26
2022-11-22T23:04:10.747Z,-0.36
2022-11-22T23:06:38.954Z,-0.42
2022-11-22T23:09:08.316Z,-0.37
2022-11-22T23:11:54.609Z,-0.46
2022-11-22T23:14:23.793Z,-0.35
2022-11-22T23:16:55.918Z,-0.46
2022-11-22T23:19:24.215Z,-0.80
2022-11-22T23:21:50.728Z,-0.67
2022-11-22T23:24:17.333Z,-0.51
2022-11-22T23:26:44.242Z,-0.52
2022-11-22T23:29:10.939Z,-0.34
2022-11-22T23:31:37.433Z,-0.58
2022-11-22T23:34:03.921Z,-0.69
2022-11-22T23:36:30.588Z,-0.59
2022-11-22T23:38:57.060Z,-0.51
2022-11-22T23:41:24.812Z,-0.55
2022-11-22T23:43:53.573Z,-0.50
2022-11-22T23:46:20.975Z,-0.45
2022-11-22T23:48:53.556Z,-0.71
2022-11-22T23:51:20.635Z,-0.55
2022-11-22T23:53:47.264Z,-0.63
2022-11-22T23:56:21.356Z,-0.50
2022-11-22T23:58:48.282Z,-0.51
